createdAt,value
2023-02-02T00:00:21.233Z,6.55
2023-02-02T00:02:47.629Z,6.54
2023-02-02T00:05:14.044Z,6.53
2023-02-02T00:07:40.478Z,6.52
2023-02-02T00:10:07.299Z,6.50
2023-02-02T00:12:33.721Z,6.52
2023-02-02T00:15:00.163Z,6.53
2023-02-02T00:17:26.610Z,6.52
2023-02-02T00:19:53.020Z,6.53
2023-02-02T00:22:19.490Z,6.50
2023-02-02T00:24:45.958Z,6.48
2023-02-02T00:27:12.338Z,6.46
2023-02-02T00:29:39.773Z,6.42
2023-02-02T00:32:06.260Z,6.40
2023-02-02T00:34:32.632Z,6.41
2023-02-02T00:36:59.053Z,6.40
2023-02-02T00:39:26.185Z,6.40
2023-02-02T00:41:53.231Z,6.40
2023-02-02T00:44:38.232Z,6.40
2023-02-02T00:47:05.183Z,6.42
2023-02-02T00:49:31.850Z,6.42
2023-02-02T00:51:59.053Z,6.45
2023-02-02T00:54:26.502Z,6.43
2023-02-02T00:56:52.989Z,6.43
2023-02-02T00:59:19.404Z,6.43
2023-02-02T01:01:46.359Z,6.42
2023-02-02T01:04:12.729Z,6.41
2023-02-02T01:06:39.109Z,6.41
2023-02-02T01:09:05.463Z,6.39
2023-02-02T01:11:31.928Z,6.39
2023-02-02T01:13:58.396Z,6.38
2023-02-02T01:16:24.997Z,6.37
2023-02-02T01:18:51.865Z,6.34
2023-02-02T01:21:18.687Z,6.32
2023-02-02T01:23:45.126Z,6.29
2023-02-02T01:26:13.074Z,6.27
2023-02-02T01:28:40.198Z,6.26
2023-02-02T01:31:09.037Z,6.23
2023-02-02T01:33:35.665Z,6.21
2023-02-02T01:36:06.315Z,6.19
2023-02-02T01:38:33.512Z,6.18
2023-02-02T01:41:00.262Z,6.16
2023-02-02T01:43:52.902Z,6.14
2023-02-02T01:46:21.754Z,6.12
2023-02-02T01:48:56.962Z,6.11
2023-02-02T01:51:27.758Z,6.10
2023-02-02T01:53:56.264Z,6.07
2023-02-02T01:56:29.040Z,6.06
2023-02-02T01:58:57.431Z,6.05
2023-02-02T02:01:24.588Z,6.05
2023-02-02T02:03:51.144Z,6.03
2023-02-02T02:06:19.496Z,6.02
2023-02-02T02:08:57.858Z,6.01
2023-02-02T02:11:24.856Z,6.00
2023-02-02T02:14:32.749Z,6.01
2023-02-02T02:17:25.260Z,6.00
2023-02-02T02:20:42.496Z,6.00
2023-02-02T02:23:49.198Z,6.00
2023-02-02T02:26:54.391Z,6.00
2023-02-02T02:29:44.751Z,6.00
2023-02-02T02:32:43.577Z,5.97
2023-02-02T02:35:23.653Z,5.97
2023-02-02T02:37:52.904Z,5.98
2023-02-02T02:40:32.407Z,5.96
2023-02-02T02:43:04.242Z,5.96
2023-02-02T02:45:32.173Z,5.95
2023-02-02T02:47:58.921Z,5.95
2023-02-02T02:50:25.585Z,5.95
2023-02-02T02:53:03.297Z,5.94
2023-02-02T02:55:41.608Z,5.96
2023-02-02T02:58:18.748Z,5.96
2023-02-02T03:00:57.453Z,6.00
2023-02-02T03:03:41.876Z,6.03
2023-02-02T03:06:19.637Z,6.07
2023-02-02T03:08:52.679Z,6.11
2023-02-02T03:11:20.525Z,6.13
2023-02-02T03:13:47.361Z,6.16
2023-02-02T03:16:15.616Z,6.19
2023-02-02T03:18:42.466Z,6.20
2023-02-02T03:21:09.004Z,6.20
2023-02-02T03:23:35.449Z,6.21
2023-02-02T03:26:02.013Z,6.23
2023-02-02T03:28:29.601Z,6.27
2023-02-02T03:30:59.366Z,6.29
2023-02-02T03:33:25.881Z,6.29
2023-02-02T03:35:52.651Z,6.33
2023-02-02T03:38:19.054Z,6.38
2023-02-02T03:40:45.432Z,6.40
2023-02-02T03:43:11.861Z,6.41
2023-02-02T03:45:40.655Z,6.43
2023-02-02T03:48:07.513Z,6.43
2023-02-02T03:50:34.029Z,6.43
2023-02-02T03:53:00.524Z,6.45
2023-02-02T03:55:26.959Z,6.47
2023-02-02T03:57:53.553Z,6.48
2023-02-02T04:00:20.351Z,6.49
2023-02-02T04:02:46.780Z,6.51
2023-02-02T04:05:13.171Z,6.53
2023-02-02T04:07:39.579Z,6.53
2023-02-02T04:10:06.299Z,6.57
2023-02-02T04:12:32.694Z,6.56
2023-02-02T04:14:59.145Z,6.55
2023-02-02T04:17:25.551Z,6.56
2023-02-02T04:19:57.923Z,6.58
2023-02-02T04:22:25.736Z,6.62
2023-02-02T04:24:52.146Z,6.58
2023-02-02T04:27:18.988Z,6.61
2023-02-02T04:29:45.488Z,6.62
2023-02-02T04:32:11.892Z,6.59
2023-02-02T04:34:38.313Z,6.61
2023-02-02T04:37:04.712Z,6.66
2023-02-02T04:39:31.167Z,6.68
2023-02-02T04:41:57.938Z,6.67
2023-02-02T04:44:24.494Z,6.71
2023-02-02T04:46:50.938Z,6.74
2023-02-02T04:49:17.556Z,6.78
2023-02-02T04:51:44.116Z,6.79
2023-02-02T04:54:10.557Z,6.79
2023-02-02T04:56:36.987Z,6.79
2023-02-02T04:59:03.628Z,6.81
2023-02-02T05:01:30.772Z,6.84
2023-02-02T05:03:57.437Z,6.85
2023-02-02T05:06:23.813Z,6.86
2023-02-02T05:08:50.576Z,6.92
2023-02-02T05:11:19.808Z,6.92
2023-02-02T05:13:48.381Z,6.92
2023-02-02T05:16:15.316Z,6.93
2023-02-02T05:18:42.443Z,6.92
2023-02-02T05:21:09.175Z,6.92
2023-02-02T05:23:35.706Z,6.88
2023-02-02T05:26:02.093Z,6.89
2023-02-02T05:28:29.332Z,6.90
2023-02-02T05:30:55.876Z,6.89
2023-02-02T05:33:22.331Z,6.90
2023-02-02T05:35:49.326Z,6.90
2023-02-02T05:38:16.372Z,6.87
2023-02-02T05:40:42.874Z,6.88
2023-02-02T05:43:09.274Z,6.87
2023-02-02T05:45:35.676Z,6.87
2023-02-02T05:48:02.109Z,6.89
2023-02-02T05:50:28.493Z,6.93
2023-02-02T05:52:54.896Z,6.90
2023-02-02T05:55:21.373Z,6.90
2023-02-02T05:57:47.778Z,6.89
2023-02-02T06:00:14.477Z,6.90
2023-02-02T06:02:40.906Z,6.86
2023-02-02T06:05:07.805Z,6.87
2023-02-02T06:07:34.174Z,6.85
2023-02-02T06:10:00.563Z,6.83
2023-02-02T06:12:26.986Z,6.80
2023-02-02T06:14:53.396Z,6.80
2023-02-02T06:17:19.847Z,6.79
2023-02-02T06:19:46.256Z,6.77
2023-02-02T06:22:12.670Z,6.75
2023-02-02T06:24:39.012Z,6.74
2023-02-02T06:27:05.391Z,6.71
2023-02-02T06:29:31.809Z,6.70
2023-02-02T06:31:58.400Z,6.71
2023-02-02T06:34:24.848Z,6.69
2023-02-02T06:36:51.277Z,6.69
2023-02-02T06:39:17.693Z,6.68
2023-02-02T06:41:48.160Z,6.68
2023-02-02T06:44:15.333Z,6.67
2023-02-02T06:46:42.366Z,6.66
2023-02-02T06:49:09.127Z,6.65
2023-02-02T06:51:35.601Z,6.63
2023-02-02T06:54:03.830Z,6.63
2023-02-02T06:56:30.329Z,6.61
2023-02-02T06:58:56.759Z,6.61
2023-02-02T07:01:23.229Z,6.62
2023-02-02T07:03:51.089Z,6.61
2023-02-02T07:06:20.040Z,6.59
2023-02-02T07:09:01.958Z,6.57
2023-02-02T07:11:29.700Z,6.58
2023-02-02T07:13:56.241Z,6.57
2023-02-02T07:16:22.662Z,6.56
2023-02-02T07:18:49.436Z,6.55
2023-02-02T07:21:23.737Z,6.54
2023-02-02T07:23:51.289Z,6.54
2023-02-02T07:26:19.419Z,6.55
2023-02-02T07:28:46.947Z,6.55
2023-02-02T07:31:19.689Z,6.53
2023-02-02T07:33:47.350Z,6.53
2023-02-02T07:36:16.716Z,6.54
2023-02-02T07:38:44.099Z,6.54
2023-02-02T07:41:10.634Z,6.55
2023-02-02T07:43:37.063Z,6.54
2023-02-02T07:46:07.986Z,6.57
2023-02-02T07:48:34.745Z,6.58
2023-02-02T07:51:02.594Z,6.58
2023-02-02T07:53:29.581Z,6.59
2023-02-02T07:56:15.850Z,6.62
2023-02-02T07:58:43.028Z,6.64
2023-02-02T08:01:11.555Z,6.66
2023-02-02T08:03:38.863Z,6.65
2023-02-02T08:06:15.030Z,6.67
2023-02-02T08:08:41.782Z,6.70
2023-02-02T08:11:10.292Z,6.74
2023-02-02T08:13:37.259Z,6.75
2023-02-02T08:16:04.142Z,6.78
2023-02-02T08:18:30.601Z,6.79
2023-02-02T08:21:01.067Z,6.80
2023-02-02T08:23:28.114Z,6.81
2023-02-02T08:25:55.192Z,6.81
2023-02-02T08:28:21.514Z,6.83
2023-02-02T08:30:47.923Z,6.83
2023-02-02T08:33:14.288Z,6.84
2023-02-02T08:35:44.068Z,6.84
2023-02-02T08:38:10.511Z,6.85
2023-02-02T08:40:36.975Z,6.88
2023-02-02T08:43:03.704Z,6.90
2023-02-02T08:46:01.633Z,6.95
2023-02-02T08:48:19.541Z,6.99
2023-02-02T08:50:55.450Z,7.03
2023-02-02T08:53:22.874Z,7.05
2023-02-02T08:55:57.299Z,7.08
2023-02-02T08:58:23.715Z,7.11
2023-02-02T09:00:50.161Z,7.16
2023-02-02T09:03:16.938Z,7.22
2023-02-02T09:05:44.189Z,7.26
2023-02-02T09:08:10.692Z,7.28
2023-02-02T09:10:38.055Z,7.32
2023-02-02T09:13:04.808Z,7.35
2023-02-02T09:15:31.258Z,7.40
2023-02-02T09:17:57.598Z,7.44
2023-02-02T09:20:24.066Z,7.54
2023-02-02T09:22:50.491Z,7.58
2023-02-02T09:25:17.099Z,7.60
2023-02-02T09:27:43.574Z,7.63
2023-02-02T09:30:10.511Z,7.73
2023-02-02T09:32:36.884Z,7.74
2023-02-02T09:35:03.456Z,7.72
2023-02-02T09:37:29.980Z,7.70
2023-02-02T09:39:56.369Z,7.71
2023-02-02T09:42:57.195Z,7.72
2023-02-02T09:45:49.709Z,7.69
2023-02-02T09:48:29.809Z,7.70
2023-02-02T09:51:01.111Z,7.67
2023-02-02T09:53:36.606Z,7.67
2023-02-02T09:56:11.335Z,7.64
2023-02-02T09:58:54.660Z,7.63
2023-02-02T10:01:33.939Z,7.59
2023-02-02T10:04:21.413Z,7.61
2023-02-02T10:06:53.822Z,7.66
2023-02-02T10:09:36.694Z,7.72
2023-02-02T10:12:24.192Z,7.73
2023-02-02T10:15:30.461Z,7.74
2023-02-02T10:18:23.124Z,7.69
2023-02-02T10:21:17.508Z,7.69
2023-02-02T10:23:45.649Z,7.66
2023-02-02T10:26:36.604Z,7.71
2023-02-02T10:29:19.252Z,7.74
2023-02-02T10:32:22.534Z,7.81
2023-02-02T10:35:18.610Z,7.88
2023-02-02T10:38:08.065Z,7.91
2023-02-02T10:40:37.082Z,7.91
2023-02-02T10:43:45.759Z,7.91
2023-02-02T10:46:23.633Z,7.91
2023-02-02T10:48:52.771Z,7.98
2023-02-02T10:51:28.573Z,8.00
2023-02-02T10:53:58.781Z,7.98
2023-02-02T10:56:51.991Z,7.93
2023-02-02T10:59:29.882Z,7.96
2023-02-02T11:01:56.383Z,8.03
2023-02-02T11:04:41.757Z,8.03
2023-02-02T11:07:08.260Z,7.96
2023-02-02T11:09:41.008Z,7.94
2023-02-02T11:12:19.771Z,7.94
2023-02-02T11:14:52.374Z,7.97
2023-02-02T11:17:21.825Z,8.01
2023-02-02T11:19:49.794Z,8.06
2023-02-02T11:22:26.128Z,8.09
2023-02-02T11:24:53.592Z,8.12
2023-02-02T11:27:26.373Z,8.13
2023-02-02T11:29:55.487Z,8.15
2023-02-02T11:32:31.028Z,8.23
2023-02-02T11:35:06.639Z,8.25
2023-02-02T11:37:35.690Z,8.25
2023-02-02T11:40:20.913Z,8.24
2023-02-02T11:42:48.371Z,8.21
2023-02-02T11:45:25.198Z,8.16
2023-02-02T11:47:51.821Z,8.20
2023-02-02T11:50:25.300Z,8.23
2023-02-02T11:52:52.216Z,8.23
2023-02-02T11:55:26.125Z,8.25
2023-02-02T11:58:18.378Z,8.23
2023-02-02T12:00:54.922Z,8.18
2023-02-02T12:03:27.833Z,8.15
2023-02-02T12:05:54.250Z,8.11
2023-02-02T12:08:21.006Z,8.14
2023-02-02T12:11:01.295Z,8.13
2023-02-02T12:13:40.550Z,8.19
2023-02-02T12:16:34.950Z,8.16
2023-02-02T12:19:17.145Z,8.12
2023-02-02T12:21:52.578Z,8.11
2023-02-02T12:24:29.476Z,8.06
2023-02-02T12:27:04.681Z,8.05
2023-02-02T12:30:03.741Z,8.01
2023-02-02T12:32:38.985Z,8.03
2023-02-02T12:35:14.991Z,8.04
2023-02-02T12:37:44.258Z,8.01
2023-02-02T12:40:42.476Z,8.01
2023-02-02T12:43:08.838Z,8.02
2023-02-02T12:46:04.882Z,8.01
2023-02-02T12:49:00.013Z,8.03
2023-02-02T12:51:47.646Z,8.06
2023-02-02T12:54:48.451Z,8.06
2023-02-02T12:57:28.469Z,8.04
2023-02-02T12:59:57.621Z,8.00
2023-02-02T13:02:42.223Z,7.98
2023-02-02T13:05:21.603Z,7.94
2023-02-02T13:08:04.966Z,7.93
2023-02-02T13:10:40.636Z,7.92
2023-02-02T13:13:16.768Z,7.86
2023-02-02T13:15:47.293Z,7.85
2023-02-02T13:18:16.493Z,7.83
2023-02-02T13:20:47.357Z,7.83
2023-02-02T13:23:18.397Z,7.79
2023-02-02T13:25:58.069Z,7.80
2023-02-02T13:28:46.471Z,7.73
2023-02-02T13:31:24.778Z,7.71
2023-02-02T13:34:22.800Z,7.70
2023-02-02T13:37:02.525Z,7.69
2023-02-02T13:39:36.228Z,7.65
2023-02-02T13:42:05.117Z,7.68
2023-02-02T13:44:43.709Z,7.72
2023-02-02T13:47:34.891Z,7.67
2023-02-02T13:50:07.580Z,7.71
2023-02-02T13:53:29.617Z,7.73
2023-02-02T13:56:27.120Z,7.68
2023-02-02T13:59:20.999Z,7.75
2023-02-02T14:01:50.002Z,7.78
2023-02-02T14:04:29.078Z,7.77
2023-02-02T14:07:05.094Z,7.73
2023-02-02T14:09:34.441Z,7.72
2023-02-02T14:12:08.676Z,7.75
2023-02-02T14:14:38.788Z,7.73
2023-02-02T14:17:34.444Z,7.73
2023-02-02T14:20:02.433Z,7.73
2023-02-02T14:22:41.261Z,7.75
2023-02-02T14:25:33.293Z,7.70
2023-02-02T14:28:00.768Z,7.64
2023-02-02T14:30:30.162Z,7.63
2023-02-02T14:33:22.291Z,7.59
2023-02-02T14:35:49.704Z,7.62
2023-02-02T14:38:22.077Z,7.63
2023-02-02T14:41:38.342Z,7.64
2023-02-02T14:44:06.241Z,7.63
2023-02-02T14:46:36.226Z,7.61
2023-02-02T14:49:02.602Z,7.58
2023-02-02T14:51:32.507Z,7.57
2023-02-02T14:54:02.515Z,7.55
2023-02-02T14:56:54.397Z,7.53
2023-02-02T14:59:37.320Z,7.53
2023-02-02T15:02:20.386Z,7.50
2023-02-02T15:04:49.401Z,7.49
2023-02-02T15:07:37.196Z,7.48
2023-02-02T15:10:04.174Z,7.46
2023-02-02T15:12:39.812Z,7.44
2023-02-02T15:15:19.117Z,7.44
2023-02-02T15:17:53.799Z,7.44
2023-02-02T15:20:26.224Z,7.45
2023-02-02T15:22:58.194Z,7.43
2023-02-02T15:25:39.902Z,7.43
2023-02-02T15:28:46.484Z,7.42
2023-02-02T15:31:25.129Z,7.41
2023-02-02T15:33:55.399Z,7.39
2023-02-02T15:36:26.193Z,7.41
2023-02-02T15:38:56.368Z,7.40
2023-02-02T15:41:27.925Z,7.44
2023-02-02T15:43:54.274Z,7.46
2023-02-02T15:46:26.163Z,7.47
2023-02-02T15:49:33.713Z,7.49
2023-02-02T15:52:10.034Z,7.50
2023-02-02T15:54:39.834Z,7.50
2023-02-02T15:57:31.145Z,7.51
2023-02-02T15:59:59.178Z,7.51
2023-02-02T16:02:35.736Z,7.50
2023-02-02T16:05:02.309Z,7.48
2023-02-02T16:07:31.852Z,7.47
2023-02-02T16:10:04.245Z,7.46
2023-02-02T16:12:31.003Z,7.44
2023-02-02T16:14:57.548Z,7.45
2023-02-02T16:17:29.674Z,7.45
2023-02-02T16:20:15.850Z,7.44
2023-02-02T16:22:45.161Z,7.44
2023-02-02T16:25:17.012Z,7.43
2023-02-02T16:27:47.142Z,7.42
2023-02-02T16:30:28.064Z,7.39
2023-02-02T16:32:54.697Z,7.40
2023-02-02T16:35:37.593Z,7.39
2023-02-02T16:38:31.439Z,7.36
2023-02-02T16:41:09.614Z,7.35
2023-02-02T16:43:43.339Z,7.34
2023-02-02T16:46:12.679Z,7.34
2023-02-02T16:48:42.541Z,7.33
2023-02-02T16:51:15.118Z,7.31
2023-02-02T16:53:44.855Z,7.30
2023-02-02T16:56:28.899Z,7.30
2023-02-02T16:58:58.076Z,7.31
2023-02-02T17:01:40.737Z,7.29
2023-02-02T17:04:17.245Z,7.26
2023-02-02T17:06:52.455Z,7.28
2023-02-02T17:09:36.383Z,7.28
2023-02-02T17:12:35.336Z,7.27
2023-02-02T17:15:29.022Z,7.25
2023-02-02T17:17:55.975Z,7.27
2023-02-02T17:20:23.002Z,7.25
2023-02-02T17:22:53.220Z,7.25
2023-02-02T17:25:41.855Z,7.24
2023-02-02T17:28:17.741Z,7.24
2023-02-02T17:30:47.239Z,7.23
2023-02-02T17:33:17.890Z,7.23
2023-02-02T17:35:55.636Z,7.23
2023-02-02T17:38:24.556Z,7.21
2023-02-02T17:40:51.568Z,7.24
2023-02-02T17:43:18.043Z,7.24
2023-02-02T17:45:44.493Z,7.23
2023-02-02T17:48:14.448Z,7.23
2023-02-02T17:50:41.915Z,7.24
2023-02-02T17:53:13.178Z,7.24
2023-02-02T17:55:42.007Z,7.24
2023-02-02T17:58:10.462Z,7.26
2023-02-02T18:00:38.511Z,7.26
2023-02-02T18:03:14.148Z,7.24
2023-02-02T18:05:43.224Z,7.23
2023-02-02T18:08:12.063Z,7.23
2023-02-02T18:10:38.821Z,7.24
2023-02-02T18:13:05.862Z,7.25
2023-02-02T18:15:32.383Z,7.25
2023-02-02T18:17:58.898Z,7.25
2023-02-02T18:20:25.288Z,7.26
2023-02-02T18:22:51.990Z,7.25
2023-02-02T18:25:18.444Z,7.25
2023-02-02T18:27:45.106Z,7.26
2023-02-02T18:30:13.595Z,7.26
2023-02-02T18:32:41.498Z,7.29
2023-02-02T18:35:10.497Z,7.27
2023-02-02T18:37:37.899Z,7.28
2023-02-02T18:40:05.237Z,7.28
2023-02-02T18:42:33.060Z,7.30
2023-02-02T18:45:00.425Z,7.30
2023-02-02T18:47:27.630Z,7.31
2023-02-02T18:49:54.062Z,7.33
2023-02-02T18:52:20.801Z,7.34
2023-02-02T18:54:47.591Z,7.34
2023-02-02T18:57:14.495Z,7.34
2023-02-02T18:59:41.533Z,7.35
2023-02-02T19:02:12.646Z,7.34
2023-02-02T19:04:38.985Z,7.32
2023-02-02T19:07:23.890Z,7.33
2023-02-02T19:09:50.242Z,7.33
2023-02-02T19:12:16.646Z,7.33
2023-02-02T19:14:43.220Z,7.35
2023-02-02T19:17:12.501Z,7.33
2023-02-02T19:19:40.499Z,7.30
2023-02-02T19:22:17.244Z,7.27
2023-02-02T19:24:43.699Z,7.23
2023-02-02T19:27:21.522Z,7.16
2023-02-02T19:29:53.681Z,7.11
2023-02-02T19:32:22.923Z,7.07
2023-02-02T19:34:52.403Z,7.05
2023-02-02T19:37:27.881Z,7.05
2023-02-02T19:40:15.555Z,7.01
2023-02-02T19:42:51.328Z,7.00
2023-02-02T19:45:28.267Z,6.99
2023-02-02T19:48:00.156Z,6.99
2023-02-02T19:50:29.683Z,6.99
2023-02-02T19:52:56.333Z,6.97
2023-02-02T19:55:28.529Z,6.94
2023-02-02T19:58:01.109Z,6.91
2023-02-02T20:00:31.212Z,6.87
2023-02-02T20:02:59.066Z,6.88
2023-02-02T20:05:32.456Z,6.85
2023-02-02T20:08:14.476Z,6.85
2023-02-02T20:10:43.481Z,6.85
2023-02-02T20:13:23.524Z,6.85
2023-02-02T20:15:51.945Z,6.84
2023-02-02T20:18:26.712Z,6.86
2023-02-02T20:20:56.929Z,6.85
2023-02-02T20:23:29.610Z,6.87
2023-02-02T20:25:57.463Z,6.88
2023-02-02T20:28:37.941Z,6.91
2023-02-02T20:31:05.407Z,6.91
2023-02-02T20:33:33.139Z,6.92
2023-02-02T20:36:02.483Z,6.91
2023-02-02T20:38:38.075Z,6.91
2023-02-02T20:41:05.789Z,6.94
2023-02-02T20:43:32.193Z,6.95
2023-02-02T20:45:58.586Z,6.98
2023-02-02T20:48:25.624Z,7.02
2023-02-02T20:50:52.032Z,7.04
2023-02-02T20:53:18.386Z,7.04
2023-02-02T20:55:44.908Z,7.08
2023-02-02T20:58:11.683Z,7.16
2023-02-02T21:00:38.934Z,7.20
2023-02-02T21:03:05.293Z,7.23
2023-02-02T21:05:31.667Z,7.25
2023-02-02T21:07:58.012Z,7.26
2023-02-02T21:10:26.240Z,7.26
2023-02-02T21:12:52.867Z,7.29
2023-02-02T21:15:19.312Z,7.31
2023-02-02T21:17:45.810Z,7.32
2023-02-02T21:20:13.567Z,7.34
2023-02-02T21:22:40.046Z,7.37
2023-02-02T21:25:06.853Z,7.39
2023-02-02T21:27:33.189Z,7.40
2023-02-02T21:29:59.563Z,7.40
2023-02-02T21:32:25.889Z,7.45
2023-02-02T21:34:52.241Z,7.43
2023-02-02T21:37:18.588Z,7.44
2023-02-02T21:39:49.479Z,7.45
2023-02-02T21:42:18.441Z,7.48
2023-02-02T21:44:49.563Z,7.48
2023-02-02T21:47:21.829Z,7.48
2023-02-02T21:49:48.357Z,7.50
2023-02-02T21:52:17.263Z,7.53
2023-02-02T21:54:44.338Z,7.54
2023-02-02T21:57:35.918Z,7.54
2023-02-02T22:00:22.410Z,7.55
2023-02-02T22:02:50.999Z,7.56
2023-02-02T22:05:21.830Z,7.57
2023-02-02T22:07:50.245Z,7.61
2023-02-02T22:10:30.391Z,7.65
2023-02-02T22:12:56.932Z,7.66
2023-02-02T22:15:27.255Z,7.69
2023-02-02T22:17:53.647Z,7.70
2023-02-02T22:20:34.550Z,7.73
2023-02-02T22:23:02.122Z,7.76
2023-02-02T22:25:34.319Z,7.77
2023-02-02T22:28:16.659Z,7.75
2023-02-02T22:30:43.336Z,7.76
2023-02-02T22:33:12.332Z,7.77
2023-02-02T22:35:39.386Z,7.76
2023-02-02T22:38:06.345Z,7.76
2023-02-02T22:40:32.678Z,7.78
2023-02-02T22:43:01.276Z,7.78
2023-02-02T22:45:28.237Z,7.77
2023-02-02T22:47:54.807Z,7.76
2023-02-02T22:50:26.996Z,7.79
2023-02-02T22:52:53.966Z,7.80
2023-02-02T22:55:20.700Z,7.81
2023-02-02T22:57:47.242Z,7.80
2023-02-02T23:00:16.717Z,7.79
2023-02-02T23:02:43.277Z,7.80
2023-02-02T23:05:12.456Z,7.82
2023-02-02T23:07:39.519Z,7.81
2023-02-02T23:10:07.665Z,7.81
2023-02-02T23:12:34.586Z,7.79
2023-02-02T23:15:00.913Z,7.78
2023-02-02T23:17:27.268Z,7.77
2023-02-02T23:19:53.654Z,7.77
2023-02-02T23:22:20.036Z,7.76
2023-02-02T23:24:46.405Z,7.77
2023-02-02T23:27:13.012Z,7.77
2023-02-02T23:29:39.722Z,7.80
2023-02-02T23:32:07.068Z,7.80
2023-02-02T23:34:33.656Z,7.79
2023-02-02T23:37:00.010Z,7.79
2023-02-02T23:39:26.335Z,7.81
2023-02-02T23:41:52.680Z,7.80
2023-02-02T23:44:19.008Z,7.81
2023-02-02T23:46:45.553Z,7.81
2023-02-02T23:49:11.957Z,7.79
2023-02-02T23:51:38.688Z,7.76
2023-02-02T23:54:05.380Z,7.78
2023-02-02T23:56:31.971Z,7.80
2023-02-02T23:58:58.337Z,7.78
